Time;durP1;ratioP1;P1;durP2;ratioP2;P2;SDS_P1;SDS_P2;PMS_P1;PMS_P2;Temp;Humidity;BMP_temperature;BMP_pressure;BME280_temperature;BME280_humidity;BME280_pressure;Samples;Min_cycle;Max_cycle;Signal;HPM_P1;HPM_P2
2023/01/13 00:00:05;;;;;;;;;2.00;0.00;;;;;11.71;82.67;100583.91;5056981;28;45507;-76
2023/01/13 00:02:31;;;;;;;;;2.00;0.00;;;;;12.19;82.80;100665.91;5072125;27;45503;-75
2023/01/13 00:04:58;;;;;;;;;0.00;0.00;;;;;11.94;82.72;100620.56;5074203;28;45386;-75
2023/01/13 00:07:23;;;;;;;;;2.00;0.00;;;;;11.58;82.80;100556.84;5070481;28;45821;-75
2023/01/13 00:09:49;;;;;;;;;0.00;0.00;;;;;12.24;83.21;100672.00;5064236;28;45593;-76
2023/01/13 00:12:15;;;;;;;;;0.00;0.00;;;;;11.87;83.18;100607.47;5055599;27;45474;-76
2023/01/13 00:14:42;;;;;;;;;0.00;0.00;;;;;11.58;83.55;100597.09;5054990;28;45374;-75
2023/01/13 00:17:08;;;;;;;;;0.00;0.00;;;;;12.05;83.00;100659.00;5066698;27;45750;-76
2023/01/13 00:19:34;;;;;;;;;0.00;0.00;;;;;12.30;82.94;100693.88;5073444;28;45442;-77
2023/01/13 00:22:00;;;;;;;;;0.00;0.00;;;;;11.85;81.96;100611.81;5072410;28;45358;-75
2023/01/13 00:24:26;;;;;;;;;0.00;0.00;;;;;11.98;80.83;100623.19;5076662;27;45481;-75
2023/01/13 00:26:52;;;;;;;;;0.00;0.00;;;;;11.91;80.64;100612.69;5076099;28;46153;-75
2023/01/13 00:29:18;;;;;;;;;0.00;0.00;;;;;12.21;80.97;100672.03;5075416;28;45492;-75
2023/01/13 00:31:45;;;;;;;;;0.00;0.00;;;;;12.08;80.52;100661.63;5076533;28;45406;-76
2023/01/13 00:34:11;;;;;;;;;0.67;0.00;;;;;12.09;79.92;100671.22;5055112;28;45837;-74
2023/01/13 00:36:37;;;;;;;;;0.00;0.00;;;;;11.74;79.87;100603.13;5055756;28;46284;-74
2023/01/13 00:39:04;;;;;;;;;1.00;0.00;;;;;11.97;79.39;100644.19;5070962;28;45527;-74
2023/01/13 00:43:21;;;;;;;;;1.00;0.00;;;;;11.78;78.60;100619.75;5057786;28;45571;-76
2023/01/13 00:44:15;;;;;;;;;0.00;0.00;;;;;12.15;78.48;100693.06;5071878;28;46042;-75
2023/01/13 00:46:40;;;;;;;;;0.00;0.00;;;;;11.92;77.72;100648.59;5052351;28;47015;-75
2023/01/13 00:49:07;;;;;;;;;0.00;0.00;;;;;11.82;77.36;100640.72;5058262;27;45871;-73
2023/01/13 00:51:33;;;;;;;;;0.00;0.00;;;;;12.07;77.23;100675.59;5068079;27;45682;-74
2023/01/13 00:53:59;;;;;;;;;0.00;0.00;;;;;11.64;77.34;100588.31;5069585;28;45272;-74
2023/01/13 00:56:24;;;;;;;;;0.00;0.00;;;;;11.56;76.85;100572.63;5063941;28;46647;-75
2023/01/13 00:58:55;;;;;;;;;0.00;0.00;;;;;11.36;76.52;100551.72;5071876;28;45663;-73
2023/01/13 01:01:23;;;;;;;;;0.00;0.00;;;;;11.86;76.93;100625.81;5070908;28;45606;-75
2023/01/13 01:03:50;;;;;;;;;0.00;0.00;;;;;11.99;76.71;100650.28;5056068;28;45566;-76
2023/01/13 01:06:18;;;;;;;;;2.00;0.00;;;;;11.49;75.49;100568.28;5071950;28;47775;-74
2023/01/13 01:08:45;;;;;;;;;0.00;0.00;;;;;12.11;75.70;100688.72;5074862;28;45692;-74
2023/01/13 01:11:13;;;;;;;;;0.00;0.00;;;;;12.12;75.84;100679.97;5071815;28;45812;-74
2023/01/13 01:13:39;;;;;;;;;0.00;0.00;;;;;11.83;75.73;100626.69;5076825;27;45617;-75
2023/01/13 01:16:07;;;;;;;;;0.33;0.00;;;;;12.10;75.46;100674.72;5075520;28;45958;-76
2023/01/13 01:18:35;;;;;;;;;0.00;0.00;;;;;11.81;75.35;100633.69;5057954;27;45381;-75
2023/01/13 01:21:01;;;;;;;;;0.00;0.00;;;;;11.96;75.92;100668.66;5075233;28;45486;-75
2023/01/13 01:23:28;;;;;;;;;0.00;0.00;;;;;11.29;75.56;100542.13;5075138;28;45453;-74
2023/01/13 01:25:54;;;;;;;;;0.00;0.00;;;;;11.86;75.51;100631.97;5072833;28;46262;-74
2023/01/13 01:28:20;;;;;;;;;0.00;0.00;;;;;11.36;75.23;100558.72;5074641;28;45612;-74
2023/01/13 01:30:46;;;;;;;;;2.00;0.00;;;;;12.08;75.35;100664.25;5070581;28;45613;-75
2023/01/13 01:33:11;;;;;;;;;0.00;0.00;;;;;11.58;75.08;100602.34;5073714;27;46320;-75
2023/01/13 01:35:40;;;;;;;;;0.00;0.00;;;;;12.12;74.69;100682.59;5064083;28;45487;-73
2023/01/13 01:38:06;;;;;;;;;0.00;0.00;;;;;12.10;74.55;100679.97;5075232;28;45455;-74
2023/01/13 01:40:31;;;;;;;;;0.00;0.00;;;;;11.84;74.31;100627.56;5077453;27;45753;-74
2023/01/13 01:45:41;;;;;;;;;0.00;0.00;;;;;12.03;74.19;100660.78;5078270;28;45505;-74
2023/01/13 01:48:08;;;;;;;;;0.00;0.00;;;;;11.70;73.58;100613.63;5075005;28;45386;-74
2023/01/13 01:50:35;;;;;;;;;0.00;0.00;;;;;11.58;72.89;100570.88;5075828;28;45537;-75
2023/01/13 01:53:12;;;;;;;;;0.00;0.00;;;;;12.07;72.95;100675.59;5075317;28;45477;-74
2023/01/13 01:55:38;;;;;;;;;1.00;0.00;;;;;11.61;72.99;100575.22;5074967;27;45742;-75
2023/01/13 01:58:40;;;;;;;;;0.00;0.00;;;;;12.05;73.00;100673.88;5048202;28;45445;-74
2023/01/13 02:01:07;;;;;;;;;0.00;0.00;;;;;11.07;72.32;100498.53;5074816;28;45567;-75
2023/01/13 02:03:37;;;;;;;;;0.00;0.00;;;;;11.76;71.78;100632.00;5056383;28;45395;-74
2023/01/13 02:06:02;;;;;;;;;0.00;0.00;;;;;11.50;72.15;100590.13;5074511;28;46743;-74
2023/01/13 02:08:28;;;;;;;;;0.00;0.00;;;;;11.19;71.60;100541.28;5074059;28;45825;-74
2023/01/13 02:10:53;;;;;;;;;1.00;0.00;;;;;11.96;71.21;100697.53;5075818;28;45727;-74
2023/01/13 02:13:21;;;;;;;;;0.67;0.00;;;;;11.87;71.16;100675.72;5079282;27;45397;-74
2023/01/13 02:16:02;;;;;;;;;0.00;0.00;;;;;11.59;70.98;100634.69;5076670;28;45755;-75
2023/01/13 02:18:38;;;;;;;;;1.00;0.00;;;;;11.92;71.42;100687.94;5073046;28;45660;-74
2023/01/13 02:21:28;;;;;;;;;0.00;0.00;;;;;11.90;71.01;100687.94;5077223;27;45516;-74
2023/01/13 02:27:25;;;;;;;;;0.00;0.00;;;;;11.85;71.45;100697.56;5077594;27;45461;-74
2023/01/13 02:33:24;;;;;;;;;0.00;0.00;;;;;11.03;71.69;100576.28;5074916;27;45337;-75
2023/01/13 02:35:59;;;;;;;;;2.00;0.00;;;;;11.25;71.76;100616.44;5074165;27;45551;-74
2023/01/13 02:38:33;;;;;;;;;0.00;0.00;;;;;11.33;71.84;100647.88;5052321;28;46948;-73
2023/01/13 02:44:09;;;;;;;;;0.00;0.00;;;;;11.51;71.73;100675.78;5074763;28;45638;-74
2023/01/13 02:46:58;;;;;;;;;1.00;0.00;;;;;11.66;72.40;100709.88;5089983;27;45709;-74
2023/01/13 02:49:34;;;;;;;;;2.00;0.00;;;;;11.36;72.34;100661.84;5073836;28;46187;-75
2023/01/13 02:52:40;;;;;;;;;0.00;0.00;;;;;11.27;72.19;100642.63;5076481;27;45580;-76
2023/01/13 02:55:12;;;;;;;;;0.00;0.00;;;;;11.19;72.14;100637.41;5073339;28;45372;-75
2023/01/13 02:57:40;;;;;;;;;0.00;0.00;;;;;11.57;72.20;100717.75;5074703;27;45760;-75
2023/01/13 03:00:08;;;;;;;;;1.67;0.00;;;;;10.94;71.72;100605.13;5074082;27;46666;-74
2023/01/13 03:02:34;;;;;;;;;1.00;0.00;;;;;11.54;71.84;100728.25;5073514;27;45679;-75
2023/01/13 03:05:00;;;;;;;;;0.00;0.00;;;;;11.52;72.08;100724.78;5076954;27;45576;-75
2023/01/13 03:07:46;;;;;;;;;0.00;0.00;;;;;10.87;72.30;100643.59;5078805;28;45482;-74
2023/01/13 03:10:30;;;;;;;;;0.00;0.00;;;;;11.46;71.89;100726.53;5063584;28;46325;-75
2023/01/13 03:13:26;;;;;;;;;1.00;0.00;;;;;11.47;72.21;100740.50;5073451;28;45452;-75
2023/01/13 03:15:51;;;;;;;;;0.00;0.00;;;;;11.51;71.65;100733.50;5073968;27;45831;-76
2023/01/13 03:18:31;;;;;;;;;0.00;0.00;;;;;11.54;71.70;100749.25;5073084;28;45523;-74
2023/01/13 03:21:13;;;;;;;;;3.67;0.00;;;;;11.19;71.12;100679.38;5063891;28;45634;-74
2023/01/13 03:24:13;;;;;;;;;0.33;0.00;;;;;11.39;71.08;100711.69;5068686;28;45492;-76
2023/01/13 03:26:56;;;;;;;;;2.00;0.00;;;;;11.61;71.52;100753.59;5073652;27;45581;-77
2023/01/13 03:29:31;;;;;;;;;0.00;0.00;;;;;11.38;70.31;100691.56;5059395;28;45316;-75
2023/01/13 03:32:35;;;;;;;;;0.00;0.00;;;;;11.62;70.68;100734.34;5072725;27;45481;-75
2023/01/13 03:35:16;;;;;;;;;0.00;0.00;;;;;11.41;70.30;100706.41;5073072;28;45338;-75
2023/01/13 03:37:48;;;;;;;;;0.00;0.00;;;;;11.63;70.09;100738.75;5073499;27;45952;-75
2023/01/13 03:40:19;;;;;;;;;0.00;0.00;;;;;11.17;69.90;100662.75;5073879;28;45663;-76
2023/01/13 03:45:40;;;;;;;;;3.00;0.00;;;;;10.84;69.60;100614.75;5075491;28;45535;-77
2023/01/13 03:48:12;;;;;;;;;0.00;0.00;;;;;10.99;70.01;100646.19;5073449;27;45484;-74
2023/01/13 03:50:47;;;;;;;;;1.00;0.00;;;;;11.25;69.94;100692.47;5073851;27;45476;-75
2023/01/13 03:53:22;;;;;;;;;0.67;0.00;;;;;11.64;69.85;100753.59;5059465;28;46255;-74
2023/01/13 03:55:54;;;;;;;;;0.00;0.00;;;;;11.53;69.62;100724.78;5067899;28;45514;-75
2023/01/13 03:58:25;;;;;;;;;0.00;0.00;;;;;11.08;69.98;100637.47;5070206;28;45519;-74
2023/01/13 04:01:12;;;;;;;;;0.00;0.00;;;;;11.66;70.00;100734.34;5056245;28;45405;-75
2023/01/13 04:03:49;;;;;;;;;0.00;0.00;;;;;11.66;69.00;100730.84;5064721;28;47806;-74
2023/01/13 04:06:20;;;;;;;;;0.00;0.00;;;;;10.55;69.11;100547.56;5059275;28;45410;-74
2023/01/13 04:08:54;;;;;;;;;2.00;0.00;;;;;11.39;69.37;100716.94;5077718;28;45373;-75
2023/01/13 04:11:36;;;;;;;;;0.00;0.00;;;;;11.11;69.78;100660.16;5072336;28;45800;-74
2023/01/13 04:14:03;;;;;;;;;1.67;0.33;;;;;10.72;69.00;100615.63;5074274;28;45742;-75
2023/01/13 04:16:30;;;;;;;;;0.00;0.00;;;;;10.91;69.35;100632.22;5057069;28;45499;-75
2023/01/13 04:18:55;;;;;;;;;1.00;0.00;;;;;11.01;69.06;100670.66;5073301;28;45351;-75
2023/01/13 04:21:21;;;;;;;;;0.00;0.00;;;;;11.50;68.86;100734.38;5073548;28;45525;-75
2023/01/13 04:23:50;;;;;;;;;0.00;0.00;;;;;11.24;68.28;100690.72;5072853;27;45712;-75
2023/01/13 04:26:16;;;;;;;;;1.00;0.00;;;;;11.23;68.64;100696.84;5077385;28;45421;-75
2023/01/13 04:28:42;;;;;;;;;0.00;0.00;;;;;11.54;68.54;100750.13;5057941;28;45504;-76
2023/01/13 04:31:08;;;;;;;;;0.00;0.00;;;;;11.68;68.53;100771.09;5073683;28;45501;-77
2023/01/13 04:33:33;;;;;;;;;0.00;0.00;;;;;11.14;68.59;100678.50;5056376;28;45351;-75
2023/01/13 04:35:59;;;;;;;;;0.00;0.00;;;;;11.20;68.20;100694.22;5073706;28;45536;-74
2023/01/13 04:38:24;;;;;;;;;0.00;0.00;;;;;11.40;68.28;100734.41;5072911;27;45410;-75
2023/01/13 04:40:50;;;;;;;;;0.00;0.00;;;;;10.96;68.21;100667.19;5076591;27;45549;-74
2023/01/13 04:43:16;;;;;;;;;0.00;0.00;;;;;11.22;67.54;100721.28;5073338;28;46680;-75
2023/01/13 04:45:42;;;;;;;;;0.00;0.00;;;;;11.39;67.69;100769.38;5076530;28;45452;-76
2023/01/13 04:48:08;;;;;;;;;1.67;0.00;;;;;11.44;67.76;100779.88;5076985;28;45408;-74
2023/01/13 04:50:34;;;;;;;;;1.00;0.00;;;;;11.23;67.72;100752.78;5058482;28;45859;-74
2023/01/13 04:53:00;;;;;;;;;2.00;0.67;;;;;10.89;67.39;100681.16;5058320;27;47647;-74
2023/01/13 04:55:25;;;;;;;;;1.00;0.00;;;;;11.13;66.61;100739.66;5074816;28;45429;-74
2023/01/13 04:57:51;;;;;;;;;0.00;0.00;;;;;11.20;66.96;100760.66;5059149;28;45544;-73
2023/01/13 05:00:19;;;;;;;;;0.00;0.00;;;;;10.83;66.27;100721.31;5062810;28;45439;-74
2023/01/13 05:02:45;;;;;;;;;1.67;0.00;;;;;10.86;66.50;100723.06;5077359;27;45528;-74
2023/01/13 05:05:11;;;;;;;;;0.00;0.00;;;;;11.13;66.66;100771.09;5067778;28;45511;-75
2023/01/13 05:07:37;;;;;;;;;2.00;0.00;;;;;10.90;66.62;100735.28;5051707;27;45858;-74
2023/01/13 05:10:03;;;;;;;;;1.00;0.00;;;;;11.19;66.74;100787.72;5075967;28;45388;-75
2023/01/13 05:17:59;;;;;;;;;1.33;0.00;;;;;10.69;66.49;100740.50;5078899;27;45383;-73
2023/01/13 05:20:25;;;;;;;;;1.00;0.00;;;;;10.65;66.60;100737.00;5079129;28;45620;-74
2023/01/13 05:25:38;;;;;;;;;0.00;0.00;;;;;10.79;66.73;100774.56;5076267;27;45315;-72
2023/01/13 05:28:05;;;;;;;;;1.33;0.00;;;;;10.54;66.89;100749.22;5078876;28;45500;-74
2023/01/13 05:30:36;;;;;;;;;1.67;0.00;;;;;10.96;67.34;100824.41;5075788;27;45422;-74
2023/01/13 05:33:01;;;;;;;;;1.00;0.00;;;;;10.95;67.23;100829.63;5075596;27;45995;-76
2023/01/13 05:35:28;;;;;;;;;0.00;0.00;;;;;10.59;67.36;100776.28;5075013;28;45455;-74
2023/01/13 05:37:55;;;;;;;;;1.00;0.00;;;;;10.57;66.89;100781.50;5075756;27;45742;-75
2023/01/13 05:43:24;;;;;;;;;1.00;0.00;;;;;10.65;66.89;100825.19;5078970;28;45382;-74
2023/01/13 05:45:58;;;;;;;;;0.00;0.00;;;;;10.61;67.31;100809.47;5061312;28;45468;-74
2023/01/13 05:48:27;;;;;;;;;0.00;0.00;;;;;10.40;67.52;100772.75;5079689;27;45479;-74
2023/01/13 05:50:54;;;;;;;;;1.00;0.00;;;;;10.50;66.79;100785.00;5062524;28;45429;-75
2023/01/13 05:53:20;;;;;;;;;0.00;0.00;;;;;10.58;66.70;100808.56;5074850;27;46788;-73
2023/01/13 05:55:46;;;;;;;;;1.00;1.00;;;;;10.56;66.65;100802.47;5078820;28;45427;-74
2023/01/13 05:58:14;;;;;;;;;1.33;0.00;;;;;10.50;66.88;100808.56;5078010;28;45481;-74
2023/01/13 06:00:43;;;;;;;;;0.00;0.00;;;;;10.67;66.93;100831.31;5073866;28;45635;-74
2023/01/13 06:03:09;;;;;;;;;0.00;0.00;;;;;10.41;66.72;100805.91;5074470;28;45445;-73
2023/01/13 06:05:40;;;;;;;;;0.00;0.00;;;;;10.74;66.72;100862.75;5063042;27;45480;-73
2023/01/13 06:08:06;;;;;;;;;0.33;0.00;;;;;10.44;66.19;100832.13;5072747;28;45413;-73
2023/01/13 06:10:32;;;;;;;;;2.00;1.00;;;;;10.61;66.61;100854.00;5075374;27;45353;-73
2023/01/13 06:12:58;;;;;;;;;0.00;0.00;;;;;10.48;66.56;100841.72;5075231;28;46312;-76
2023/01/13 06:15:24;;;;;;;;;2.00;1.00;;;;;10.71;65.92;100890.72;5075003;28;45405;-74
2023/01/13 06:17:50;;;;;;;;;2.67;0.00;;;;;10.31;66.07;100818.09;5057593;28;45663;-74
2023/01/13 06:20:16;;;;;;;;;0.00;0.00;;;;;10.62;65.94;100881.06;5078855;28;45560;-76
2023/01/13 06:22:46;;;;;;;;;2.00;0.00;;;;;10.59;65.57;100892.41;5060926;27;47921;-76
2023/01/13 06:25:33;;;;;;;;;4.00;1.00;;;;;10.69;66.23;100902.91;5075425;27;45476;-76
2023/01/13 06:27:59;;;;;;;;;0.00;0.00;;;;;10.34;66.08;100854.75;5074954;28;45354;-74
2023/01/13 06:30:29;;;;;;;;;0.00;0.00;;;;;10.46;65.64;100881.84;5063605;28;45644;-74
2023/01/13 06:32:59;;;;;;;;;2.33;1.33;;;;;10.13;65.79;100851.97;5075063;27;45845;-72
2023/01/13 06:35:30;;;;;;;;;0.00;0.00;;;;;10.40;65.73;100887.94;5075190;28;45342;-73
2023/01/13 06:37:59;;;;;;;;;0.00;0.00;;;;;10.60;65.85;100932.56;5074753;28;45924;-73
2023/01/13 06:40:25;;;;;;;;;7.33;0.33;;;;;10.27;66.07;100893.94;5072614;28;45592;-74
2023/01/13 06:45:38;;;;;;;;;4.33;1.00;;;;;9.52;65.43;100767.03;5069856;28;45440;-73
2023/01/13 06:48:04;;;;;;;;;2.00;1.00;;;;;10.57;65.36;100943.03;5056246;28;45450;-73
2023/01/13 06:50:30;;;;;;;;;4.25;2.00;;;;;10.36;65.92;100907.13;5075699;28;45821;-74
2023/01/13 06:52:56;;;;;;;;;3.00;1.00;;;;;10.52;65.54;100939.50;5078549;28;45551;-73
2023/01/13 06:55:22;;;;;;;;;2.00;2.00;;;;;10.57;65.79;100953.50;5073730;27;45587;-73
2023/01/13 06:57:56;;;;;;;;;3.75;2.00;;;;;10.40;65.73;100929.84;5078609;27;45450;-74
2023/01/13 07:00:23;;;;;;;;;2.25;1.00;;;;;10.47;65.62;100930.75;5078401;27;45633;-75
2023/01/13 07:02:49;;;;;;;;;1.33;1.33;;;;;10.53;65.78;100957.84;5078715;28;46172;-74
2023/01/13 07:05:15;;;;;;;;;3.50;2.75;;;;;10.15;65.61;100898.22;5067651;28;45509;-73
2023/01/13 07:07:41;;;;;;;;;3.00;1.00;;;;;10.43;65.91;100950.81;5072184;27;45734;-76
2023/01/13 07:10:20;;;;;;;;;2.33;1.00;;;;;10.55;65.76;100974.44;5074676;28;45836;-74
2023/01/13 07:15:31;;;;;;;;;1.00;1.00;;;;;10.41;65.87;100934.19;5078420;28;45436;-73
2023/01/13 07:17:58;;;;;;;;;1.75;1.00;;;;;10.40;65.54;100935.09;5078580;28;45240;-73
2023/01/13 07:20:24;;;;;;;;;0.00;0.00;;;;;10.25;65.22;100927.09;5060276;28;45612;-74
2023/01/13 07:22:53;;;;;;;;;3.00;0.33;;;;;10.53;66.59;100993.63;5074042;28;46399;-73
2023/01/13 07:25:19;;;;;;;;;2.00;0.00;;;;;10.54;66.13;100996.28;5074831;27;45501;-74
2023/01/13 07:27:45;;;;;;;;;2.00;0.67;;;;;10.40;65.82;100969.13;5074163;28;45471;-74
2023/01/13 07:30:11;;;;;;;;;0.67;0.67;;;;;10.52;66.28;100994.50;5074065;28;45477;-72
2023/01/13 07:32:37;;;;;;;;;1.33;1.00;;;;;10.45;65.85;100985.72;5076544;27;47023;-72
2023/01/13 07:35:04;;;;;;;;;4.00;0.00;;;;;10.28;66.18;100945.44;5077840;27;45339;-73
2023/01/13 07:37:34;;;;;;;;;2.33;1.00;;;;;10.42;66.21;100993.56;5078206;28;45471;-75
2023/01/13 07:40:00;;;;;;;;;1.00;0.67;;;;;10.35;66.29;100982.19;5078292;28;45437;-73
2023/01/13 07:45:17;;;;;;;;;2.00;0.33;;;;;10.35;66.20;101002.25;5073056;28;45520;-73
2023/01/13 07:47:43;;;;;;;;;1.25;0.00;;;;;10.30;66.40;100988.25;5076511;28;45426;-73
2023/01/13 07:50:11;;;;;;;;;1.50;1.00;;;;;10.30;66.44;101012.69;5077777;28;45486;-73
2023/01/13 07:52:37;;;;;;;;;0.00;0.00;;;;;10.28;66.71;101003.94;5078151;28;45489;-74
2023/01/13 07:55:03;;;;;;;;;1.75;1.00;;;;;9.48;66.72;100889.88;5076103;28;45474;-73
2023/01/13 07:57:29;;;;;;;;;2.75;1.75;;;;;9.92;66.61;100953.03;5073481;27;45782;-73
2023/01/13 07:59:54;;;;;;;;;1.00;0.50;;;;;10.41;67.16;101036.31;5074030;28;45925;-73
2023/01/13 08:02:20;;;;;;;;;3.50;2.00;;;;;10.30;67.51;101025.78;5073412;28;46373;-72
2023/01/13 08:04:46;;;;;;;;;0.33;0.33;;;;;10.29;67.13;101034.50;5078306;28;45453;-72
2023/01/13 08:07:11;;;;;;;;;0.00;0.00;;;;;10.52;67.16;101042.53;5061285;28;45354;-75
2023/01/13 08:09:42;;;;;;;;;1.00;1.00;;;;;10.33;67.04;101003.97;5057625;28;45974;-73
2023/01/13 08:15:15;;;;;;;;;2.00;2.00;;;;;10.12;65.89;100950.56;5025845;28;45540;-74
2023/01/13 08:17:41;;;;;;;;;3.00;1.00;;;;;10.57;66.29;101021.59;5024767;28;45530;-72
2023/01/13 08:20:08;;;;;;;;;2.75;1.00;;;;;10.74;66.02;101038.28;5055987;27;45614;-73
2023/01/13 08:22:33;;;;;;;;;1.33;1.00;;;;;10.79;65.88;101044.44;5086564;27;46973;-73
2023/01/13 08:24:59;;;;;;;;;1.33;1.00;;;;;11.70;64.68;101057.06;5076786;28;45543;-73
2023/01/13 08:27:25;;;;;;;;;1.33;1.33;;;;;11.98;62.37;100958.28;5080454;28;45381;-73
2023/01/13 08:29:51;;;;;;;;;0.67;0.00;;;;;13.29;60.18;101067.53;5080957;27;45519;-73
2023/01/13 08:32:16;;;;;;;;;3.33;0.00;;;;;13.64;58.84;101028.78;5070397;27;45459;-73
2023/01/13 08:34:42;;;;;;;;;1.33;1.00;;;;;14.38;57.07;101037.88;5069968;27;45450;-72
2023/01/13 11:00:32;;;;;;;;;0.00;0.00;;;;;20.75;36.40;101174.81;5019357;27;45749;-74
2023/01/13 11:03:19;;;;;;;;;3.67;0.00;;;;;19.95;37.15;101171.09;4992714;27;45488;-74
2023/01/13 11:05:53;;;;;;;;;1.33;0.00;;;;;18.94;39.48;101205.78;5066892;27;45421;-75
2023/01/13 11:08:22;;;;;;;;;2.00;1.00;;;;;17.97;41.61;101200.88;4989284;27;45598;-75
2023/01/13 11:10:51;;;;;;;;;0.33;0.00;;;;;17.38;42.91;101219.66;5021301;27;45552;-75
2023/01/13 11:13:30;;;;;;;;;1.00;0.00;;;;;16.54;45.73;101221.94;5006695;27;45463;-72
2023/01/13 11:16:12;;;;;;;;;0.00;0.00;;;;;16.04;46.37;101220.88;4988836;27;45531;-74
2023/01/13 11:19:10;;;;;;;;;2.33;1.00;;;;;15.15;47.98;101136.50;4989212;27;45571;-74
2023/01/13 11:22:04;;;;;;;;;1.00;1.00;;;;;15.16;48.36;101194.53;5006824;27;46128;-72
2023/01/13 11:24:38;;;;;;;;;0.33;0.33;;;;;16.25;46.71;101224.09;5075774;27;45688;-75
2023/01/13 11:27:25;;;;;;;;;3.67;1.33;;;;;17.08;44.97;101214.91;4993322;27;45945;-76
2023/01/13 11:30:19;;;;;;;;;2.33;1.67;;;;;16.48;45.72;101226.44;4989069;27;45767;-77
2023/01/13 11:32:52;;;;;;;;;0.00;0.00;;;;;15.88;48.35;101229.88;4989153;27;47746;-76
2023/01/13 11:35:21;;;;;;;;;4.00;1.00;;;;;14.76;48.13;101110.50;4989960;27;45312;-76
2023/01/13 11:37:52;;;;;;;;;2.00;1.00;;;;;15.10;48.33;101238.56;5012356;27;45440;-76
2023/01/13 11:40:24;;;;;;;;;3.33;1.00;;;;;14.20;48.77;101127.59;5010739;27;45419;-76
2023/01/13 11:43:21;;;;;;;;;1.00;1.00;;;;;14.51;49.52;101223.13;4993000;27;47114;-76
2023/01/13 11:45:52;;;;;;;;;1.00;1.00;;;;;14.26;49.87;101203.97;4988216;27;45732;-74
2023/01/13 11:48:24;;;;;;;;;1.33;1.00;;;;;14.41;49.95;101219.69;5008208;27;45541;-74
2023/01/13 11:51:07;;;;;;;;;2.00;2.00;;;;;14.61;49.85;101252.97;5011175;27;45609;-74
2023/01/13 11:53:42;;;;;;;;;3.67;2.00;;;;;14.82;49.52;101241.41;5010475;27;45435;-74
2023/01/13 11:56:34;;;;;;;;;3.00;1.67;;;;;14.81;48.82;101240.56;4988192;27;45773;-75
2023/01/13 11:59:13;;;;;;;;;2.67;1.00;;;;;14.52;49.15;101234.56;5006073;27;45600;-75
2023/01/13 12:02:05;;;;;;;;;1.00;1.00;;;;;14.61;49.29;101234.53;5007313;27;46032;-73
2023/01/13 12:05:00;;;;;;;;;3.00;1.00;;;;;14.75;48.44;101237.06;4997128;27;45496;-75
2023/01/13 12:07:47;;;;;;;;;4.33;1.00;;;;;14.58;47.62;101203.78;5004074;27;45535;-76
2023/01/13 12:10:32;;;;;;;;;1.00;1.00;;;;;14.59;48.02;101236.28;4990173;27;45755;-75
2023/01/13 12:13:06;;;;;;;;;0.33;0.33;;;;;14.32;48.50;101210.97;4993129;27;45507;-76
2023/01/13 12:15:35;;;;;;;;;1.00;1.00;;;;;14.50;48.37;101231.94;4974910;27;46788;-75
2023/01/13 12:18:25;;;;;;;;;2.67;2.00;;;;;14.43;47.28;101223.19;4992114;27;45429;-75
2023/01/13 12:21:25;;;;;;;;;3.00;0.00;;;;;14.25;47.17;101239.09;4992854;27;45395;-74
2023/01/13 12:23:57;;;;;;;;;0.67;0.67;;;;;14.18;48.28;101227.72;4963210;27;45474;-74
2023/01/13 12:26:24;;;;;;;;;2.00;1.00;;;;;14.14;47.88;101204.94;4993063;27;45566;-74
2023/01/13 12:29:00;;;;;;;;;2.67;1.00;;;;;14.31;47.64;101220.63;4991694;27;45680;-75
2023/01/13 12:31:26;;;;;;;;;4.67;1.00;;;;;13.96;47.62;101207.63;4992733;27;45549;-74
2023/01/13 12:34:01;;;;;;;;;3.33;1.67;;;;;13.92;47.80;101222.56;4974659;27;45588;-74
2023/01/13 12:36:43;;;;;;;;;2.67;1.00;;;;;13.90;47.77;101219.06;4994590;27;45478;-75
2023/01/13 12:39:15;;;;;;;;;2.00;1.00;;;;;14.06;47.89;101269.06;4993839;27;45912;-75
2023/01/13 12:45:14;;;;;;;;;3.00;1.00;;;;;14.04;48.34;101268.19;4986059;27;45454;-74
2023/01/13 12:47:45;;;;;;;;;1.33;1.33;;;;;13.78;48.08;101203.31;4996579;27;46242;-73
2023/01/13 12:50:26;;;;;;;;;4.33;2.00;;;;;13.97;48.40;101270.81;4974792;27;46047;-74
2023/01/13 12:52:58;;;;;;;;;2.00;1.00;;;;;13.93;48.81;101265.59;4974799;27;45789;-73
2023/01/13 12:55:26;;;;;;;;;3.00;1.33;;;;;13.73;48.42;101237.56;4992459;27;45539;-74
2023/01/13 12:57:58;;;;;;;;;2.67;1.33;;;;;13.87;48.79;101268.25;4992068;27;45390;-74
2023/01/13 13:00:32;;;;;;;;;3.00;0.00;;;;;13.86;48.48;101283.16;4991855;27;45585;-75
2023/01/13 13:03:20;;;;;;;;;2.00;1.00;;;;;13.78;48.50;101262.09;4975321;28;45615;-76
2023/01/13 13:06:07;;;;;;;;;2.67;1.00;;;;;13.66;48.63;101269.16;4975861;28;45526;-75
2023/01/13 13:09:01;;;;;;;;;3.67;1.00;;;;;13.58;49.87;101266.56;4962959;27;48022;-77
2023/01/13 13:14:39;;;;;;;;;3.00;1.00;;;;;13.68;49.46;101259.50;4982756;27;45363;-76
2023/01/13 13:17:27;;;;;;;;;2.33;1.33;;;;;13.13;49.46;101171.88;4977661;28;45429;-76
2023/01/13 13:19:57;;;;;;;;;4.00;1.00;;;;;13.64;49.28;101269.16;4984671;27;46701;-74
2023/01/13 13:22:26;;;;;;;;;4.00;1.33;;;;;13.54;49.74;101257.78;4991676;27;45479;-75
2023/01/13 13:24:58;;;;;;;;;1.67;1.33;;;;;13.51;49.63;101268.31;4991823;27;45922;-75
2023/01/13 13:27:26;;;;;;;;;0.67;0.67;;;;;13.53;49.89;101269.19;4992560;27;45518;-77
2023/01/13 13:29:57;;;;;;;;;6.33;0.33;;;;;13.50;50.22;101271.84;4973548;27;45979;-75
2023/01/13 13:32:56;;;;;;;;;1.33;1.00;;;;;13.19;50.48;101238.50;4991455;27;45453;-75
2023/01/13 13:35:50;;;;;;;;;1.00;1.00;;;;;13.33;50.16;101260.44;4929068;28;45792;-75
2023/01/13 13:47:38;;;;;;;;;3.33;1.00;;;;;12.92;49.78;101204.31;4988751;27;45457;-76
2023/01/13 13:50:15;;;;;;;;;3.33;1.00;;;;;13.30;49.88;101266.59;4982521;27;45827;-74
2023/01/13 13:52:53;;;;;;;;;0.67;0.67;;;;;13.14;50.24;101259.53;4982890;27;45447;-76
2023/01/13 13:55:22;;;;;;;;;2.00;2.00;;;;;13.36;50.47;101298.16;4973545;27;45452;-75
2023/01/13 13:57:56;;;;;;;;;2.33;2.00;;;;;13.28;50.10;101301.66;4991390;27;45798;-76
2023/01/13 14:00:28;;;;;;;;;4.00;1.67;;;;;13.29;50.19;101304.31;4993764;27;45387;-74
2023/01/13 14:03:09;;;;;;;;;2.00;1.00;;;;;13.03;50.18;101285.84;4995608;27;46224;-75
2023/01/13 14:06:08;;;;;;;;;1.67;1.67;;;;;13.04;50.03;101292.84;4995023;27;46124;-75
2023/01/13 14:08:37;;;;;;;;;2.33;1.00;;;;;12.93;50.36;101284.06;4991614;27;45284;-74
2023/01/13 14:11:26;;;;;;;;;2.00;1.00;;;;;13.10;50.44;101323.56;4991311;27;45362;-74
2023/01/13 14:14:05;;;;;;;;;2.67;1.00;;;;;13.04;50.16;101318.28;4990810;27;45895;-75
2023/01/13 14:16:32;;;;;;;;;3.00;2.00;;;;;12.97;50.29;101320.00;4991222;27;45382;-75
2023/01/13 14:19:27;;;;;;;;;1.00;1.00;;;;;12.84;50.71;101321.75;4991642;27;45495;-77
2023/01/13 14:21:54;;;;;;;;;2.67;0.67;;;;;12.38;50.81;101249.81;4978471;28;45525;-76
2023/01/13 14:24:21;;;;;;;;;1.33;1.33;;;;;12.96;50.40;101362.97;4973272;27;46413;-74
2023/01/13 14:26:50;;;;;;;;;1.00;1.00;;;;;12.86;50.47;101321.75;4991316;27;45874;-75
2023/01/13 14:29:21;;;;;;;;;1.00;0.67;;;;;12.83;50.61;101325.25;4991093;27;45556;-74
2023/01/13 14:31:55;;;;;;;;;3.33;1.67;;;;;12.89;50.67;101350.69;4991958;27;45866;-76
2023/01/13 14:34:22;;;;;;;;;3.67;1.00;;;;;12.32;51.02;101290.06;4972941;28;45792;-75
2023/01/13 14:36:50;;;;;;;;;1.00;1.00;;;;;12.66;50.42;101353.25;4990543;27;45458;-75
2023/01/13 14:39:15;;;;;;;;;3.00;1.33;;;;;12.64;50.83;101371.63;4991112;27;45587;-73
2023/01/13 14:41:41;;;;;;;;;2.33;1.00;;;;;12.58;51.26;101365.50;4991045;27;45433;-77
2023/01/13 14:44:22;;;;;;;;;3.33;1.00;;;;;12.59;51.14;101381.25;4990687;27;45389;-76
2023/01/13 14:46:48;;;;;;;;;2.33;1.00;;;;;12.56;51.04;101378.63;4976865;27;45334;-75
2023/01/13 14:49:31;;;;;;;;;2.00;1.00;;;;;12.53;51.25;101370.72;4995356;27;45373;-76
2023/01/13 14:52:20;;;;;;;;;6.00;1.67;;;;;12.51;51.34;101383.84;4992778;27;45470;-75
2023/01/13 14:54:56;;;;;;;;;1.00;1.00;;;;;12.45;51.15;101383.81;4990546;27;45882;-76
2023/01/13 14:57:26;;;;;;;;;2.67;0.67;;;;;12.18;51.10;101333.78;4990645;27;45388;-75
2023/01/13 15:00:01;;;;;;;;;3.33;1.00;;;;;12.43;51.32;101389.94;4990294;27;45516;-76
2023/01/13 15:02:29;;;;;;;;;7.00;1.00;;;;;12.41;51.73;101389.03;4973227;28;45647;-77